Time;durP1;ratioP1;P1;durP2;ratioP2;P2;SDS_P1;SDS_P2;PMS_P1;PMS_P2;Temp;Humidity;BMP_temperature;BMP_pressure;BME280_temperature;BME280_humidity;BME280_pressure;Samples;Min_cycle;Max_cycle;Signal;HPM_P1;HPM_P2
2022/02/13 00:02:06;;;;;;;11.10;5.83;;;;;;;4.26;100.00;101744.92;1667094;85;39242;-77
2022/02/13 00:04:35;;;;;;;12.43;7.35;;;;;;;4.18;100.00;101752.37;1685928;84;21094;-64
2022/02/13 00:07:03;;;;;;;10.58;6.60;;;;;;;4.24;100.00;101756.63;1690614;84;20956;-64
2022/02/13 00:09:30;;;;;;;9.90;5.50;;;;;;;4.23;100.00;101757.56;1687334;84;21079;-64
2022/02/13 00:12:00;;;;;;;7.55;3.80;;;;;;;4.45;100.00;101764.66;1687557;84;21105;-67
2022/02/13 00:14:28;;;;;;;8.48;4.50;;;;;;;4.39;100.00;101763.78;1686937;84;21152;-65
2022/02/13 00:16:55;;;;;;;8.43;5.10;;;;;;;4.40;100.00;101761.58;1687489;84;21055;-66
2022/02/13 00:19:22;;;;;;;7.05;4.33;;;;;;;4.23;100.00;101770.94;1689871;84;21042;-75
2022/02/13 00:21:49;;;;;;;7.83;4.67;;;;;;;4.13;100.00;101763.83;1690623;84;21173;-64
2022/02/13 00:24:16;;;;;;;9.63;5.03;;;;;;;3.85;100.00;101766.60;1689287;83;20963;-64
2022/02/13 00:26:42;;;;;;;7.78;4.58;;;;;;;3.84;100.00;101767.07;1690355;84;21077;-65
2022/02/13 00:29:10;;;;;;;10.35;4.85;;;;;;;3.56;100.00;101769.37;1689834;84;20956;-75
2022/02/13 00:31:37;;;;;;;7.97;4.28;;;;;;;3.82;100.00;101769.37;1683166;83;21114;-66
2022/02/13 00:34:05;;;;;;;9.50;4.47;;;;;;;3.06;100.00;101776.00;1685905;83;21075;-74
2022/02/13 00:36:32;;;;;;;10.45;5.00;;;;;;;3.10;100.00;101768.44;1688661;83;21437;-69
2022/02/13 00:38:58;;;;;;;8.73;4.75;;;;;;;2.99;100.00;101772.15;1687867;84;21514;-76
2022/02/13 00:41:26;;;;;;;8.35;4.83;;;;;;;3.64;100.00;101770.97;1688610;84;20980;-66
2022/02/13 00:43:53;;;;;;;9.15;5.67;;;;;;;3.45;100.00;101776.12;1690495;84;21078;-77
2022/02/13 00:46:19;;;;;;;11.80;4.90;;;;;;;3.95;100.00;101774.09;1689857;84;21016;-65
2022/02/13 00:48:47;;;;;;;7.83;4.65;;;;;;;4.01;100.00;101783.17;1690616;84;21143;-69
2022/02/13 00:51:13;;;;;;;7.65;4.60;;;;;;;3.73;100.00;101790.16;1690745;84;21168;-70
2022/02/13 00:53:40;;;;;;;12.30;5.42;;;;;;;3.61;100.00;101794.84;1689870;84;20991;-67
2022/02/13 00:56:07;;;;;;;8.53;4.65;;;;;;;3.67;100.00;101806.03;1687914;84;20999;-65
2022/02/13 00:58:35;;;;;;;12.45;5.15;;;;;;;3.89;100.00;101804.16;1689450;84;21018;-65
2022/02/13 01:01:01;;;;;;;10.43;4.65;;;;;;;3.97;100.00;101808.34;1690514;84;21066;-65
2022/02/13 01:03:29;;;;;;;10.50;5.28;;;;;;;3.92;100.00;101811.70;1689166;84;21163;-66
2022/02/13 01:05:55;;;;;;;9.38;4.78;;;;;;;4.13;100.00;101816.73;1698673;83;21067;-66
2022/02/13 01:08:23;;;;;;;8.38;4.12;;;;;;;3.97;100.00;101821.24;1699084;83;21631;-64
2022/02/13 01:10:49;;;;;;;7.90;4.50;;;;;;;4.05;100.00;101830.62;1698580;84;21559;-64
2022/02/13 01:13:16;;;;;;;7.12;3.92;;;;;;;4.04;98.98;101832.81;1699155;83;22489;-65
2022/02/13 01:15:43;;;;;;;10.30;5.15;;;;;;;4.04;98.14;101836.69;1698553;83;21172;-66
2022/02/13 01:18:09;;;;;;;10.10;5.05;;;;;;;3.94;96.46;101838.67;1698970;84;21082;-65
2022/02/13 01:20:37;;;;;;;11.18;4.50;;;;;;;3.58;100.00;101855.62;1698850;84;20920;-66
2022/02/13 01:23:03;;;;;;;9.50;5.03;;;;;;;3.63;100.00;101856.97;1698863;84;23019;-66
2022/02/13 01:25:32;;;;;;;8.33;3.80;;;;;;;3.66;100.00;101861.94;1698474;83;20952;-65
2022/02/13 01:28:00;;;;;;;9.30;4.30;;;;;;;3.50;100.00;101869.48;1698952;84;21122;-65
2022/02/13 01:30:28;;;;;;;7.62;4.10;;;;;;;3.33;100.00;101871.81;1699172;83;21035;-75
2022/02/13 01:32:55;;;;;;;9.70;4.12;;;;;;;3.57;100.00;101880.59;1697934;84;21012;-65
2022/02/13 01:35:22;;;;;;;7.80;4.22;;;;;;;3.70;98.72;101877.22;1698644;83;21133;-72
2022/02/13 01:37:49;;;;;;;6.78;3.67;;;;;;;3.76;96.42;101880.70;1699106;84;21576;-64
2022/02/13 01:40:16;;;;;;;8.13;3.72;;;;;;;3.66;95.17;101883.86;1696152;83;21215;-64
2022/02/13 01:42:42;;;;;;;7.42;3.62;;;;;;;3.53;97.50;101884.76;1698558;83;21011;-74
2022/02/13 01:45:10;;;;;;;7.58;4.03;;;;;;;3.68;95.94;101877.80;1698717;84;21145;-67
2022/02/13 01:47:37;;;;;;;5.90;3.37;;;;;;;3.70;93.78;101883.67;1698818;84;23015;-65
2022/02/13 01:50:07;;;;;;;7.22;4.20;;;;;;;3.63;92.82;101886.63;1698950;84;21043;-67
2022/02/13 01:52:35;;;;;;;6.17;3.27;;;;;;;2.90;100.00;101888.17;1698734;83;21096;-77
2022/02/13 01:55:03;;;;;;;8.80;3.87;;;;;;;2.51;100.00;101889.30;1698887;83;20900;-64
2022/02/13 01:57:31;;;;;;;9.30;3.62;;;;;;;2.48;100.00;101892.86;1698679;83;21043;-64
2022/02/13 01:59:58;;;;;;;10.38;4.42;;;;;;;2.72;100.00;101900.05;1695864;84;21018;-64
2022/02/13 02:02:25;;;;;;;6.87;3.80;;;;;;;2.67;100.00;101899.86;1692262;84;21504;-68
2022/02/13 02:04:53;;;;;;;10.45;3.58;;;;;;;2.76;100.00;101905.38;1674077;83;22222;-65
2022/02/13 02:07:20;;;;;;;6.72;3.20;;;;;;;2.90;100.00;101913.11;1660145;85;21036;-75
2022/02/13 02:09:51;;;;;;;7.03;2.77;;;;;;;2.86;100.00;101909.89;1660503;85;20999;-65
2022/02/13 02:12:18;;;;;;;7.35;3.37;;;;;;;2.69;100.00;101912.66;1660593;85;21094;-68
2022/02/13 02:14:46;;;;;;;7.87;3.58;;;;;;;2.64;100.00;101909.05;1662988;85;21543;-69
2022/02/13 02:17:13;;;;;;;8.38;4.10;;;;;;;2.92;100.00;101915.97;1660440;85;22502;-64
2022/02/13 02:19:39;;;;;;;7.12;3.75;;;;;;;2.87;99.80;101923.12;1662534;85;21643;-73
2022/02/13 02:22:07;;;;;;;7.55;3.30;;;;;;;2.76;100.00;101924.22;1662930;85;21526;-63
2022/02/13 02:24:35;;;;;;;8.48;3.72;;;;;;;2.78;99.75;101930.59;1668468;85;21033;-78
2022/02/13 02:27:02;;;;;;;8.03;3.47;;;;;;;2.92;97.56;101931.89;1663589;85;21456;-64
2022/02/13 02:29:29;;;;;;;8.13;3.50;;;;;;;3.12;94.40;101929.39;1664742;85;21182;-64
2022/02/13 02:31:57;;;;;;;6.33;3.67;;;;;;;2.80;95.81;101931.31;1665079;85;20975;-67
2022/02/13 02:34:24;;;;;;;7.37;3.92;;;;;;;2.79;95.43;101932.23;1668832;85;21650;-64
2022/02/13 02:36:51;;;;;;;10.08;4.83;;;;;;;2.78;93.72;101925.44;1667951;85;21075;-75
2022/02/13 02:39:18;;;;;;;8.80;3.80;;;;;;;2.36;98.92;101928.33;1668433;85;21291;-64
2022/02/13 02:41:45;;;;;;;8.25;3.70;;;;;;;3.04;91.57;101923.41;1668524;85;22364;-65
2022/02/13 02:44:11;;;;;;;8.80;3.02;;;;;;;2.68;93.32;101940.12;1667708;85;21528;-65
2022/02/13 02:46:38;;;;;;;8.43;3.55;;;;;;;2.41;95.16;101941.28;1668519;85;21014;-65
2022/02/13 02:49:04;;;;;;;6.90;3.27;;;;;;;2.78;93.75;101938.31;1668478;85;21113;-74
2022/02/13 02:51:31;;;;;;;7.40;3.65;;;;;;;2.86;90.31;101932.24;1668255;85;20931;-64
2022/02/13 02:53:57;;;;;;;10.00;4.37;;;;;;;2.83;90.17;101944.02;1667840;85;21878;-65
2022/02/13 02:56:24;;;;;;;8.13;4.10;;;;;;;2.87;89.45;101939.05;1668517;85;21078;-64
2022/02/13 02:58:51;;;;;;;8.70;4.20;;;;;;;2.95;87.88;101940.69;1668580;85;21030;-63
2022/02/13 03:01:17;;;;;;;7.65;3.98;;;;;;;2.50;90.54;101945.53;1668012;85;21026;-76
2022/02/13 03:03:45;;;;;;;9.38;4.05;;;;;;;2.48;93.72;101948.20;1667887;83;21041;-68
2022/02/13 03:06:12;;;;;;;8.43;3.80;;;;;;;2.46;95.02;101946.16;1668577;85;22027;-64
2022/02/13 03:08:39;;;;;;;9.90;4.12;;;;;;;2.52;93.23;101949.68;1668189;85;21058;-64
2022/02/13 03:11:06;;;;;;;8.45;4.55;;;;;;;2.64;92.47;101946.84;1666041;84;20954;-64
2022/02/13 03:13:34;;;;;;;12.78;5.35;;;;;;;2.41;93.31;101947.72;1636512;85;20896;-66
2022/02/13 03:16:00;;;;;;;8.83;4.22;;;;;;;2.57;89.12;101946.37;1667095;85;21623;-66
2022/02/13 03:18:29;;;;;;;8.23;4.22;;;;;;;2.62;87.18;101950.81;1668608;85;21526;-63
2022/02/13 03:20:58;;;;;;;9.75;3.85;;;;;;;2.72;84.75;101942.53;1668484;85;20999;-64
2022/02/13 03:23:25;;;;;;;9.33;4.35;;;;;;;2.50;86.68;101948.95;1666811;85;21615;-70
2022/02/13 03:25:51;;;;;;;8.60;4.58;;;;;;;2.55;85.70;101945.64;1667604;85;21126;-68
2022/02/13 03:28:18;;;;;;;12.13;4.17;;;;;;;2.30;85.37;101950.55;1665610;85;21084;-65
2022/02/13 03:30:46;;;;;;;6.37;3.90;;;;;;;2.09;89.66;101953.89;1668643;85;22339;-67
2022/02/13 03:33:12;;;;;;;8.93;3.77;;;;;;;1.96;90.30;101953.73;1668584;85;21112;-65
2022/02/13 03:35:39;;;;;;;9.68;4.17;;;;;;;1.85;90.82;101956.06;1668211;85;21030;-80
2022/02/13 03:38:06;;;;;;;9.65;4.00;;;;;;;2.18;87.70;101960.61;1668132;85;22424;-64
2022/02/13 03:40:33;;;;;;;11.00;4.53;;;;;;;2.31;85.26;101962.48;1668775;85;20998;-66
2022/02/13 03:43:00;;;;;;;9.70;4.22;;;;;;;2.19;84.76;101962.27;1668790;85;21103;-64
2022/02/13 03:45:26;;;;;;;8.25;4.17;;;;;;;2.06;86.99;101961.77;1668366;85;20998;-78
2022/02/13 03:47:53;;;;;;;11.18;4.72;;;;;;;2.24;84.87;101958.63;1666145;85;21006;-67
2022/02/13 03:50:19;;;;;;;9.45;3.80;;;;;;;2.14;84.81;101959.59;1667766;85;21053;-65
2022/02/13 03:52:48;;;;;;;7.60;4.05;;;;;;;2.06;86.04;101965.63;1668502;85;21022;-66
2022/02/13 03:55:16;;;;;;;9.13;3.62;;;;;;;2.16;84.67;101962.92;1668233;85;21158;-64
2022/02/13 03:57:43;;;;;;;11.53;4.15;;;;;;;2.28;83.81;101967.83;1669768;84;21073;-63
2022/02/13 04:00:12;;;;;;;7.33;3.77;;;;;;;2.44;81.48;101970.71;1672686;81;20978;-78
2022/02/13 04:02:40;;;;;;;8.68;4.58;;;;;;;2.45;81.17;101974.11;1728650;81;21097;-65
2022/02/13 04:05:09;;;;;;;8.90;4.37;;;;;;;2.59;79.07;101976.72;1729626;81;21145;-65
2022/02/13 04:07:39;;;;;;;8.55;4.40;;;;;;;2.14;83.61;101983.57;1723039;82;21508;-68
2022/02/13 04:10:07;;;;;;;8.43;4.50;;;;;;;2.34;84.40;101976.00;1723297;82;21674;-64
2022/02/13 04:12:34;;;;;;;8.83;4.20;;;;;;;2.28;81.88;101990.98;1719732;81;20999;-63
2022/02/13 04:15:01;;;;;;;9.08;4.42;;;;;;;2.57;81.12;101991.42;1721715;81;21471;-63
2022/02/13 04:17:28;;;;;;;10.68;4.55;;;;;;;2.61;79.97;101999.36;1684094;84;21067;-65
2022/02/13 04:19:55;;;;;;;9.40;4.65;;;;;;;2.65;79.38;101999.55;1708044;82;21825;-71
2022/02/13 04:22:21;;;;;;;8.58;4.00;;;;;;;2.78;78.40;102000.13;1682095;84;20964;-65
2022/02/13 04:24:48;;;;;;;8.75;4.35;;;;;;;2.30;81.52;102005.87;1710319;82;21015;-64
2022/02/13 04:27:14;;;;;;;7.97;4.40;;;;;;;2.57;81.25;102000.89;1704565;82;21452;-64
2022/02/13 04:29:41;;;;;;;8.63;5.22;;;;;;;3.23;73.65;102006.87;1708945;82;21135;-70
2022/02/13 04:32:08;;;;;;;9.10;4.42;;;;;;;3.01;72.52;102007.78;1710661;82;21149;-64
2022/02/13 04:34:34;;;;;;;10.80;4.67;;;;;;;2.57;74.37;102005.58;1707152;83;20964;-63
2022/02/13 04:37:02;;;;;;;13.15;6.37;;;;;;;1.84;83.22;102011.81;1708798;82;21114;-64
2022/02/13 04:39:28;;;;;;;12.60;6.40;;;;;;;2.26;80.87;102018.53;1709781;82;21078;-79
2022/02/13 04:41:55;;;;;;;13.85;7.03;;;;;;;2.51;78.45;102021.85;1704442;82;21278;-69
2022/02/13 04:44:21;;;;;;;11.95;6.25;;;;;;;2.63;76.70;102023.26;1708808;83;21161;-63
2022/02/13 04:46:48;;;;;;;11.03;5.72;;;;;;;2.40;78.26;102025.03;1713351;82;21021;-80
2022/02/13 04:49:15;;;;;;;11.18;5.08;;;;;;;2.48;77.38;102024.13;1703482;83;20993;-64
2022/02/13 04:51:41;;;;;;;9.53;4.83;;;;;;;2.49;79.60;102025.78;1709335;83;21541;-64
2022/02/13 04:54:08;;;;;;;11.22;4.83;;;;;;;2.52;78.73;102032.05;1707595;82;21117;-64
2022/02/13 04:56:35;;;;;;;8.10;3.87;;;;;;;2.50;80.00;102027.89;1685758;82;21214;-63
2022/02/13 04:59:01;;;;;;;13.88;4.90;;;;;;;2.60;79.12;102022.60;1705702;83;21094;-78
2022/02/13 05:01:28;;;;;;;9.68;3.77;;;;;;;3.01;76.75;102031.79;1711541;82;21146;-65
2022/02/13 05:03:56;;;;;;;8.48;4.00;;;;;;;3.39;72.58;102039.81;1707931;82;21004;-66
2022/02/13 05:06:24;;;;;;;7.55;3.72;;;;;;;3.43;71.60;102044.33;1686654;82;21063;-63
2022/02/13 05:08:53;;;;;;;9.98;4.72;;;;;;;3.72;70.20;102043.84;1711970;82;21156;-63
2022/02/13 05:11:20;;;;;;;9.43;3.95;;;;;;;3.82;68.87;102041.05;1712749;82;21035;-63
2022/02/13 05:13:47;;;;;;;8.90;3.85;;;;;;;3.76;69.32;102037.58;1713474;82;21081;-65
2022/02/13 05:16:13;;;;;;;8.05;4.65;;;;;;;3.76;70.80;102031.59;1707745;82;21145;-65
2022/02/13 05:18:39;;;;;;;8.20;3.77;;;;;;;3.82;71.91;102036.35;1713791;82;21026;-64
2022/02/13 05:21:06;;;;;;;9.53;4.20;;;;;;;4.07;71.46;102042.93;1710028;83;21212;-62
2022/02/13 05:23:32;;;;;;;8.75;4.15;;;;;;;4.35;70.10;102047.15;1710658;83;21074;-73
2022/02/13 05:25:59;;;;;;;7.92;3.95;;;;;;;3.89;73.93;102060.37;1689188;84;22312;-78
2022/02/13 05:28:25;;;;;;;7.05;3.60;;;;;;;4.01;74.65;102061.37;1710316;82;21014;-65
2022/02/13 05:30:52;;;;;;;7.37;3.75;;;;;;;4.28;72.91;102059.26;1713073;82;21075;-63
2022/02/13 05:33:18;;;;;;;7.72;3.83;;;;;;;4.67;71.16;102066.67;1704727;82;23172;-62
2022/02/13 05:35:45;;;;;;;8.90;3.90;;;;;;;4.95;70.07;102060.04;1709438;83;21118;-76
2022/02/13 05:38:12;;;;;;;8.83;3.92;;;;;;;5.12;67.80;102064.92;1707292;83;21106;-64
2022/02/13 05:40:38;;;;;;;8.63;3.60;;;;;;;5.00;69.91;102067.48;1710261;83;21078;-61
2022/02/13 05:43:05;;;;;;;9.65;3.67;;;;;;;5.45;67.60;102063.55;1709289;83;21007;-61
2022/02/13 05:45:32;;;;;;;6.30;3.20;;;;;;;5.59;67.73;102062.61;1708265;82;21179;-62
2022/02/13 05:47:59;;;;;;;7.20;3.95;;;;;;;5.72;68.11;102066.45;1712354;83;20955;-63
2022/02/13 05:50:26;;;;;;;7.15;3.85;;;;;;;6.14;68.00;102065.69;1712967;83;21106;-64
2022/02/13 05:52:52;;;;;;;7.70;4.47;;;;;;;6.77;68.69;102061.95;1710859;82;21012;-64
2022/02/13 05:55:19;;;;;;;10.70;5.60;;;;;;;7.49;66.90;102062.98;1695225;83;21377;-63
2022/02/13 05:57:46;;;;;;;11.68;5.78;;;;;;;8.16;60.69;102064.17;1691603;83;21142;-64
2022/02/13 06:00:14;;;;;;;7.15;4.00;;;;;;;8.19;57.44;102069.61;1694167;82;21093;-70
2022/02/13 06:02:41;;;;;;;8.13;3.72;;;;;;;8.28;56.90;102072.75;1683852;84;21119;-63
2022/02/13 06:05:09;;;;;;;7.12;3.85;;;;;;;8.68;55.31;102070.38;1674693;84;21441;-67
2022/02/13 06:07:41;;;;;;;6.53;3.47;;;;;;;9.36;54.30;102062.97;1671526;84;21044;-63
2022/02/13 06:10:10;;;;;;;6.37;3.80;;;;;;;10.09;52.65;102056.23;1679483;84;21131;-67
2022/02/13 06:12:38;;;;;;;6.05;3.70;;;;;;;10.64;50.54;102052.61;1677024;83;21104;-65
2022/02/13 06:15:08;;;;;;;8.00;4.20;;;;;;;11.03;48.90;102064.30;1673392;83;21095;-64
2022/02/13 06:17:36;;;;;;;7.93;3.97;;;;;;;11.56;47.09;102064.99;1720602;82;21353;-64
2022/02/13 06:20:05;;;;;;;8.77;4.03;;;;;;;12.09;45.88;102069.52;1684083;84;21407;-72
2022/02/13 06:22:32;;;;;;;7.30;4.23;;;;;;;12.31;44.25;102065.62;1718359;81;21497;-65
2022/02/13 06:24:58;;;;;;;7.83;4.07;;;;;;;12.52;44.37;102066.63;1720246;82;21827;-67
2022/02/13 06:27:25;;;;;;;7.07;4.17;;;;;;;12.77;42.40;102053.25;1720306;81;21384;-68
2022/02/13 06:29:53;;;;;;;10.70;5.27;;;;;;;12.77;42.40;102053.25;1717814;82;21479;-67
2022/02/13 06:32:21;;;;;;;8.50;4.83;;;;;;;12.84;41.45;102048.56;1716542;82;21825;-66
2022/02/13 06:34:47;;;;;;;10.00;5.30;;;;;;;13.15;40.49;102050.20;1714092;82;21870;-66
2022/02/13 06:37:14;;;;;;;8.60;4.73;;;;;;;13.29;41.27;102054.05;1719243;82;21699;-67
2022/02/13 06:39:40;;;;;;;7.03;3.30;;;;;;;13.59;40.75;102058.44;1718551;82;21713;-69
2022/02/13 06:42:07;;;;;;;6.83;3.50;;;;;;;13.92;39.60;102055.42;1718549;82;21720;-69
2022/02/13 06:44:33;;;;;;;6.10;3.60;;;;;;;14.22;39.25;102061.05;1718213;82;21050;-67
2022/02/13 06:47:00;;;;;;;8.67;4.33;;;;;;;14.43;38.75;102065.79;1719869;82;21193;-66
2022/02/13 06:49:27;;;;;;;10.73;3.80;;;;;;;14.53;39.37;102066.48;1720950;83;20949;-66
2022/02/13 06:51:54;;;;;;;12.03;5.23;;;;;;;13.92;39.70;102059.84;1719937;82;21055;-69
2022/02/13 06:54:20;;;;;;;10.30;4.80;;;;;;;13.94;40.22;102056.55;1716329;82;21059;-65
2022/02/13 06:56:47;;;;;;;8.53;4.30;;;;;;;14.12;40.46;102061.18;1720562;82;21062;-65
2022/02/13 06:59:13;;;;;;;12.30;4.83;;;;;;;14.22;39.65;102058.42;1720283;82;21797;-66
2022/02/13 07:01:40;;;;;;;10.80;5.00;;;;;;;14.29;39.45;102060.72;1714749;82;21609;-66
2022/02/13 07:04:06;;;;;;;10.90;4.30;;;;;;;14.34;39.53;102065.79;1711489;82;21049;-69
2022/02/13 07:06:34;;;;;;;10.30;4.13;;;;;;;14.76;40.37;102066.63;1711939;82;21158;-67
2022/02/13 07:09:00;;;;;;;8.40;4.40;;;;;;;14.93;40.10;102076.13;1711992;82;21066;-68
2022/02/13 07:11:27;;;;;;;7.87;3.90;;;;;;;15.09;40.20;102085.28;1706034;82;21166;-66
2022/02/13 07:13:55;;;;;;;9.63;3.53;;;;;;;15.44;39.66;102079.75;1710975;81;21062;-68
2022/02/13 07:16:22;;;;;;;7.30;3.67;;;;;;;15.76;38.44;102080.96;1702005;82;21138;-65
2022/02/13 07:18:49;;;;;;;5.33;2.70;;;;;;;16.07;39.01;102079.31;1708810;82;21568;-68
2022/02/13 07:21:16;;;;;;;5.47;3.20;;;;;;;16.59;38.29;102083.32;1707041;82;21563;-68
2022/02/13 07:23:43;;;;;;;5.30;3.23;;;;;;;16.68;38.33;102077.00;1707708;82;21588;-69
2022/02/13 07:26:14;;;;;;;5.17;2.83;;;;;;;16.43;38.36;102075.06;1707544;82;21103;-65
2022/02/13 07:31:23;;;;;;;4.73;2.40;;;;;;;16.19;36.99;102067.37;1708820;82;21137;-67
2022/02/13 07:33:50;;;;;;;6.30;2.90;;;;;;;15.97;37.45;102067.18;1705061;82;22532;-67
2022/02/13 07:36:16;;;;;;;4.37;2.33;;;;;;;15.91;37.80;102062.64;1700376;82;21201;-68
2022/02/13 07:38:43;;;;;;;5.87;2.70;;;;;;;15.83;37.97;102069.73;1706597;82;21012;-67
2022/02/13 07:41:10;;;;;;;4.40;2.40;;;;;;;15.63;37.41;102072.77;1709788;82;21051;-67
2022/02/13 07:43:37;;;;;;;5.07;2.43;;;;;;;15.46;37.56;102069.91;1709157;82;21058;-68
2022/02/13 07:46:04;;;;;;;4.60;2.70;;;;;;;15.41;38.33;102071.70;1708763;82;21501;-67
2022/02/13 07:48:32;;;;;;;5.20;2.60;;;;;;;15.57;39.10;102068.22;1709032;82;21253;-67
2022/02/13 07:50:59;;;;;;;5.93;3.13;;;;;;;15.70;39.10;102061.11;1708412;82;21559;-68
2022/02/13 07:53:26;;;;;;;5.27;2.63;;;;;;;15.87;38.37;102070.52;1708320;82;20976;-65
2022/02/13 07:55:52;;;;;;;6.47;2.80;;;;;;;16.00;38.13;102068.66;1705439;83;21028;-66
2022/02/13 07:58:19;;;;;;;5.80;3.00;;;;;;;15.92;37.50;102071.34;1706889;83;21122;-65
2022/02/13 08:00:45;;;;;;;6.50;3.50;;;;;;;15.94;37.84;102075.91;1706712;82;21226;-66
2022/02/13 08:03:12;;;;;;;6.17;3.40;;;;;;;16.09;38.09;102077.30;1713443;82;20987;-70
2022/02/13 08:05:39;;;;;;;6.17;3.07;;;;;;;16.42;38.10;102072.62;1716835;81;21000;-65
2022/02/13 08:08:06;;;;;;;6.50;2.77;;;;;;;16.55;36.88;102071.52;1714223;81;21110;-71
2022/02/13 08:10:33;;;;;;;7.87;4.20;;;;;;;16.70;36.83;102069.73;1713615;81;21392;-67
2022/02/13 08:12:59;;;;;;;7.13;3.13;;;;;;;16.94;35.89;102073.98;1715654;81;21811;-66
2022/02/13 08:15:26;;;;;;;9.20;3.77;;;;;;;16.88;35.85;102068.62;1714430;81;21610;-69
2022/02/13 08:17:53;;;;;;;8.60;4.90;;;;;;;16.81;36.32;102075.59;1716534;81;21102;-66
2022/02/13 08:20:20;;;;;;;9.33;3.80;;;;;;;16.98;36.21;102067.36;1717789;81;21345;-67
2022/02/13 08:22:47;;;;;;;10.23;6.27;;;;;;;17.01;35.76;102063.55;1715303;81;21067;-67
2022/02/13 08:25:13;;;;;;;13.73;7.20;;;;;;;17.10;35.78;102065.09;1712538;81;21184;-66
2022/02/13 08:27:40;;;;;;;13.57;9.60;;;;;;;17.31;36.10;102064.34;1716562;81;21019;-71
2022/02/13 08:30:08;;;;;;;11.93;7.80;;;;;;;17.40;35.16;102064.57;1713863;82;21431;-67
2022/02/13 08:32:34;;;;;;;8.63;4.57;;;;;;;17.84;34.59;102062.86;1711384;81;21003;-71
2022/02/13 08:35:01;;;;;;;11.83;7.83;;;;;;;18.04;34.29;102063.89;1711950;81;21075;-68
2022/02/13 08:37:29;;;;;;;6.20;3.57;;;;;;;18.10;33.72;102056.53;1714448;81;22055;-68
2022/02/13 08:39:56;;;;;;;6.97;3.67;;;;;;;18.12;33.58;102052.40;1716649;81;21844;-66
2022/02/13 08:42:22;;;;;;;6.13;3.60;;;;;;;17.92;33.60;102054.34;1712413;81;21051;-65
2022/02/13 08:44:48;;;;;;;7.13;4.67;;;;;;;18.03;33.55;102060.92;1710865;82;21007;-73
2022/02/13 08:47:15;;;;;;;5.97;3.63;;;;;;;17.77;32.28;102060.17;1707432;81;21046;-63
2022/02/13 08:49:42;;;;;;;4.77;2.80;;;;;;;17.60;32.26;102058.72;1714238;81;21221;-66
2022/02/13 08:52:10;;;;;;;5.83;2.97;;;;;;;17.84;31.69;102057.58;1709457;81;21035;-66
2022/02/13 08:54:36;;;;;;;5.90;3.03;;;;;;;17.68;32.43;102055.45;1711819;81;21474;-72
2022/02/13 08:57:03;;;;;;;6.77;3.07;;;;;;;17.77;31.91;102049.63;1714753;81;21085;-66
2022/02/13 08:59:30;;;;;;;5.57;2.50;;;;;;;16.01;32.85;102059.27;1717704;81;21030;-68
2022/02/13 09:01:57;;;;;;;5.93;2.97;;;;;;;15.63;33.45;102052.23;1713606;81;21157;-68
2022/02/13 09:04:23;;;;;;;7.57;4.77;;;;;;;15.44;33.67;102054.79;1714832;81;20994;-66
2022/02/13 09:06:49;;;;;;;6.70;3.30;;;;;;;15.37;34.14;102053.33;1714843;81;21080;-71
2022/02/13 09:09:16;;;;;;;5.03;2.77;;;;;;;15.90;32.75;102047.02;1714588;81;21086;-67
2022/02/13 09:11:43;;;;;;;5.53;2.80;;;;;;;16.76;31.58;102050.63;1716149;81;21094;-67
2022/02/13 09:14:10;;;;;;;5.70;2.23;;;;;;;17.57;30.38;102035.34;1716463;81;21240;-65
2022/02/13 09:16:37;;;;;;;6.00;2.87;;;;;;;17.77;29.43;102034.27;1716399;81;21026;-68
2022/02/13 09:19:03;;;;;;;4.73;2.40;;;;;;;17.45;29.65;102024.47;1716284;81;21092;-72
2022/02/13 09:21:30;;;;;;;3.77;2.17;;;;;;;17.07;29.56;102026.42;1716123;81;21065;-72
2022/02/13 09:23:57;;;;;;;6.47;2.60;;;;;;;16.79;29.72;102031.02;1716046;81;21070;-72
2022/02/13 09:26:24;;;;;;;5.63;2.73;;;;;;;16.74;30.12;102029.41;1718217;83;22268;-68
2022/02/13 09:28:50;;;;;;;5.40;2.90;;;;;;;17.16;29.95;102018.25;1719219;81;21528;-67
2022/02/13 09:31:17;;;;;;;5.97;2.77;;;;;;;16.50;30.05;102025.98;1719153;81;20911;-70
2022/02/13 09:33:44;;;;;;;4.90;2.70;;;;;;;16.50;30.24;102027.80;1719104;81;21804;-69
2022/02/13 09:36:13;;;;;;;5.17;2.57;;;;;;;16.65;29.94;102016.80;1718322;81;21063;-69
2022/02/13 09:38:39;;;;;;;4.77;2.27;;;;;;;16.70;30.29;102022.83;1719572;81;21331;-66
2022/02/13 09:41:06;;;;;;;5.50;2.70;;;;;;;16.62;29.77;102022.41;1718434;83;21493;-69
2022/02/13 09:43:32;;;;;;;7.77;3.60;;;;;;;16.53;29.82;102019.05;1718038;83;21020;-70
2022/02/13 09:45:59;;;;;;;9.07;4.97;;;;;;;16.62;30.03;102021.60;1718565;81;21865;-69
2022/02/13 09:48:29;;;;;;;9.40;4.43;;;;;;;16.24;30.41;102023.73;1717310;83;21489;-68
2022/02/13 09:50:57;;;;;;;6.07;3.20;;;;;;;16.39;30.31;102017.20;1715077;83;21147;-68
2022/02/13 09:53:24;;;;;;;6.97;3.17;;;;;;;16.72;29.86;102011.63;1718722;81;21719;-69
2022/02/13 09:55:50;;;;;;;8.57;3.90;;;;;;;16.62;29.56;102017.65;1718051;83;21836;-67
2022/02/13 09:58:17;;;;;;;12.37;6.43;;;;;;;16.49;29.70;102013.83;1718216;83;22815;-68
2022/02/13 10:00:55;;;;;;;10.73;5.43;;;;;;;16.43;30.03;102006.63;1717666;83;21760;-68
2022/02/13 10:03:28;;;;;;;14.47;7.60;;;;;;;16.40;30.16;102011.44;1708733;81;21750;-68
2022/02/13 10:06:02;;;;;;;12.07;6.73;;;;;;;16.33;30.83;102007.41;1698862;84;21797;-65
2022/02/13 10:08:34;;;;;;;10.47;5.10;;;;;;;16.76;30.08;102012.44;1728674;81;21648;-66
2022/02/13 10:11:36;;;;;;;5.45;2.37;;;;;;;16.76;30.08;102012.44;1731483;82;21652;-72
2022/02/13 10:14:13;;;;;;;6.43;2.50;;;;;;;16.51;30.28;102012.32;1698114;84;21082;-65
2022/02/13 10:16:45;;;;;;;4.57;2.00;;;;;;;16.71;30.04;102013.45;1731032;82;22210;-69
2022/02/13 10:19:20;;;;;;;5.50;3.00;;;;;;;17.12;29.79;102013.03;1731569;81;21765;-66
2022/02/13 10:21:57;;;;;;;5.57;2.77;;;;;;;17.27;29.66;102006.41;1732017;81;21693;-66
2022/02/13 10:24:33;;;;;;;5.97;2.40;;;;;;;17.69;29.79;102007.48;1730921;82;21704;-68
2022/02/13 10:27:07;;;;;;;5.23;2.40;;;;;;;17.69;29.79;102007.48;1731655;82;21725;-65
2022/02/13 10:29:39;;;;;;;5.77;2.40;;;;;;;17.71;29.74;101931.63;1731468;82;22199;-66
2022/02/13 10:32:20;;;;;;;7.10;2.77;;;;;;;18.11;29.25;101996.16;1730838;82;21682;-65
2022/02/13 10:35:06;;;;;;;5.73;2.73;;;;;;;18.08;29.68;101999.69;1732152;81;21762;-65
2022/02/13 10:37:42;;;;;;;5.77;3.23;;;;;;;18.03;29.76;101993.63;1728096;82;21842;-70
2022/02/13 10:40:16;;;;;;;6.60;3.80;;;;;;;17.68;29.71;101990.84;1732367;81;21852;-67
2022/02/13 10:42:43;;;;;;;6.27;2.93;;;;;;;17.55;30.32;101980.67;1730693;81;21747;-65
2022/02/13 10:45:27;;;;;;;5.73;2.63;;;;;;;17.66;30.23;101982.83;1731108;81;21793;-71
2022/02/13 10:47:59;;;;;;;5.23;2.33;;;;;;;17.69;30.37;101953.41;1731391;81;21681;-68
2022/02/13 10:50:30;;;;;;;4.40;2.90;;;;;;;17.85;30.30;101979.59;1726930;82;21672;-70
2022/02/13 10:53:01;;;;;;;6.53;3.10;;;;;;;18.03;30.32;101982.27;1729856;81;21816;-71
2022/02/13 10:55:30;;;;;;;6.30;2.83;;;;;;;18.23;30.02;101977.47;1726968;81;21171;-66
2022/02/13 10:57:58;;;;;;;5.10;2.60;;;;;;;17.29;30.46;101975.92;1730755;81;20970;-67
2022/02/13 11:00:30;;;;;;;8.30;3.97;;;;;;;17.77;29.63;101973.13;1728461;82;21681;-65
2022/02/13 11:03:04;;;;;;;9.50;5.20;;;;;;;17.84;29.61;101975.33;1729663;81;21928;-71
2022/02/13 11:05:34;;;;;;;8.40;4.70;;;;;;;17.61;29.77;101971.49;1726654;81;21687;-67
2022/02/13 11:08:08;;;;;;;6.80;3.60;;;;;;;17.05;30.37;101969.97;1718976;82;21782;-67
2022/02/13 11:10:47;;;;;;;6.10;3.20;;;;;;;17.05;30.54;101966.50;1683436;84;22106;-67
2022/02/13 11:13:17;;;;;;;6.40;2.67;;;;;;;17.01;30.54;101969.52;1705517;82;21794;-67
2022/02/13 11:15:45;;;;;;;6.27;2.87;;;;;;;17.05;30.71;101963.39;1706053;83;21762;-67
2022/02/13 11:18:25;;;;;;;5.57;2.73;;;;;;;17.03;31.08;101970.14;1704134;82;21774;-67
2022/02/13 11:20:54;;;;;;;5.53;3.27;;;;;;;17.24;30.76;101961.99;1706546;83;21622;-65
2022/02/13 11:23:28;;;;;;;5.53;2.67;;;;;;;17.33;31.15;101960.05;1702917;83;21715;-64
2022/02/13 11:26:00;;;;;;;5.33;2.70;;;;;;;17.46;30.61;101954.44;1655599;86;21582;-65
2022/02/13 11:28:49;;;;;;;5.70;2.87;;;;;;;17.38;30.60;101956.34;1708041;83;21691;-68
2022/02/13 11:31:50;;;;;;;5.40;2.73;;;;;;;16.75;30.37;101960.77;1702684;83;22245;-70
2022/02/13 11:34:28;;;;;;;6.10;3.07;;;;;;;16.29;31.42;101967.47;1653922;84;22629;-67